North Platte, Nebraska
Current Conditions -  °F | °C
As of 9:53 AM on Saturday 25 Oct 2014 (Local Time) from KLBF Reporting Station
Clear Clear  
Wind Chill: 48°   Ceiling: Unl
Heat Index: 48°   Visibility: 10mi
Dew Point: 40°   Wind: 3mph
Humidity: 74%   Direction: 280°W
Pressure: 30.15"   Gusts: NA
Location:  41.14°N, 100.76°W
Report Text: KLBF 251453Z AUTO 28003KT 10SM CLR 09/04 A3015 RMK AO2 SLP209 T00890044 53013
Loading
Personal Weather Stations






























Interactive Weather Map New forecast layout! Learn more

10-Day Weather Forecast

Advertisements
Track Severe Weather on mobile